Time;durP1;ratioP1;P1;durP2;ratioP2;P2;SDS_P1;SDS_P2;PMS_P1;PMS_P2;Temp;Humidity;BMP_temperature;BMP_pressure;BME280_temperature;BME280_humidity;BME280_pressure;Samples;Min_cycle;Max_cycle;Signal;HPM_P1;HPM_P2
2022/12/14 00:00:45;;;;;;;20.95;9.70;;;-2.30;99.90;;;;;;4992064;28;20182;-81
2022/12/14 00:03:12;;;;;;;15.05;8.35;;;-2.20;99.90;;;;;;4991802;28;20229;-81
2022/12/14 00:05:38;;;;;;;16.50;10.35;;;-2.20;99.90;;;;;;4974416;28;20192;-81
2022/12/14 00:08:03;;;;;;;13.40;8.80;;;-2.10;99.90;;;;;;4958130;28;20273;-82
2022/12/14 00:10:31;;;;;;;13.30;8.73;;;-2.30;99.90;;;;;;4958032;28;20261;-82
2022/12/14 00:12:56;;;;;;;17.25;10.05;;;-2.30;99.90;;;;;;4991708;28;20244;-81
2022/12/14 00:15:22;;;;;;;16.93;9.80;;;-2.20;99.90;;;;;;4942116;28;20657;-79
2022/12/14 00:17:48;;;;;;;17.40;10.13;;;-2.20;99.90;;;;;;4992048;28;20641;-77
2022/12/14 00:20:13;;;;;;;16.87;10.03;;;-2.20;99.90;;;;;;4958277;28;20285;-78
2022/12/14 00:22:39;;;;;;;18.87;10.40;;;-2.20;99.90;;;;;;4991371;28;20206;-77
2022/12/14 00:25:05;;;;;;;18.93;10.63;;;-2.10;99.90;;;;;;4991910;28;20181;-77
2022/12/14 00:27:31;;;;;;;16.67;9.68;;;-2.00;99.90;;;;;;4973752;28;20225;-76
2022/12/14 00:29:57;;;;;;;19.08;10.15;;;-2.00;99.90;;;;;;4974058;28;20934;-76
2022/12/14 00:32:23;;;;;;;17.70;9.70;;;-2.00;99.90;;;;;;4973329;28;20222;-77
2022/12/14 00:34:48;;;;;;;17.27;9.30;;;-1.90;99.90;;;;;;4973634;28;20774;-76
2022/12/14 00:37:14;;;;;;;27.63;9.43;;;-1.90;99.90;;;;;;4973514;28;20233;-76
2022/12/14 00:39:40;;;;;;;17.70;10.93;;;-1.90;99.90;;;;;;4991300;28;20214;-76
2022/12/14 00:42:06;;;;;;;19.23;11.23;;;-1.90;99.90;;;;;;4991030;28;20221;-75
2022/12/14 00:44:32;;;;;;;19.20;11.02;;;-1.80;99.90;;;;;;4957592;28;20217;-76
2022/12/14 00:46:58;;;;;;;15.20;9.83;;;-1.70;99.90;;;;;;4973485;28;20309;-76
2022/12/14 00:49:23;;;;;;;19.13;10.80;;;-1.70;99.90;;;;;;4991068;28;20421;-76
2022/12/14 00:51:49;;;;;;;20.43;11.00;;;-1.60;99.90;;;;;;4990756;28;20444;-76
2022/12/14 00:54:15;;;;;;;129.50;54.53;;;-1.70;99.90;;;;;;4973543;28;20193;-76
2022/12/14 00:56:40;;;;;;;30.30;15.47;;;-1.70;99.90;;;;;;4991029;28;20192;-75
2022/12/14 00:59:06;;;;;;;19.50;9.23;;;-1.70;99.90;;;;;;4956889;28;20196;-76
2022/12/14 01:01:32;;;;;;;16.67;10.30;;;-1.70;99.90;;;;;;4972971;28;20209;-76
2022/12/14 01:04:18;;;;;;;20.27;10.50;;;-1.70;99.90;;;;;;4990656;28;20562;-76
2022/12/14 01:06:45;;;;;;;18.40;10.70;;;-1.70;99.90;;;;;;4962297;28;20193;-76
2022/12/14 01:09:12;;;;;;;17.17;10.10;;;-1.70;99.90;;;;;;4989556;28;20280;-76
2022/12/14 01:11:38;;;;;;;16.80;10.23;;;-1.70;99.90;;;;;;4990667;28;20209;-76
2022/12/14 01:14:05;;;;;;;18.13;9.43;;;-1.60;99.90;;;;;;4990462;28;20178;-77
2022/12/14 01:16:30;;;;;;;19.15;10.02;;;-1.50;99.90;;;;;;4973189;28;20794;-77
2022/12/14 01:18:58;;;;;;;20.07;10.40;;;-1.50;99.90;;;;;;4990413;28;20190;-77
2022/12/14 01:21:24;;;;;;;17.23;9.35;;;-1.40;99.90;;;;;;4973100;28;20709;-76
2022/12/14 01:23:59;;;;;;;19.33;10.40;;;-1.50;99.90;;;;;;4990388;28;20201;-77
2022/12/14 01:26:26;;;;;;;19.08;10.70;;;-1.50;99.90;;;;;;4990656;28;20187;-77
2022/12/14 01:28:57;;;;;;;21.77;10.43;;;-1.40;99.90;;;;;;4972915;28;20182;-77
2022/12/14 01:31:31;;;;;;;17.63;10.20;;;-1.30;99.90;;;;;;4973185;28;20202;-77
2022/12/14 01:33:57;;;;;;;18.70;10.35;;;-1.30;99.90;;;;;;4990175;28;20193;-77
2022/12/14 01:36:26;;;;;;;20.50;11.60;;;-1.30;99.90;;;;;;4990346;28;20185;-77
2022/12/14 01:38:55;;;;;;;17.10;10.30;;;-1.30;99.90;;;;;;4990127;28;20425;-77
2022/12/14 01:41:25;;;;;;;16.63;10.18;;;-1.40;99.90;;;;;;4972581;28;20213;-78
2022/12/14 01:43:57;;;;;;;21.52;11.13;;;-1.40;99.90;;;;;;4989954;28;20697;-82
2022/12/14 01:46:25;;;;;;;17.10;10.52;;;-1.40;99.90;;;;;;4972777;28;20186;-79
2022/12/14 01:48:54;;;;;;;18.17;10.48;;;-1.40;99.90;;;;;;4972538;28;20200;-79
2022/12/14 01:51:21;;;;;;;16.33;10.05;;;-1.50;99.90;;;;;;4956420;28;20241;-80
2022/12/14 01:53:47;;;;;;;17.20;10.25;;;-1.50;99.90;;;;;;4956694;28;20202;-79
2022/12/14 01:56:14;;;;;;;18.07;10.67;;;-1.40;99.90;;;;;;4972565;28;20192;-79
2022/12/14 01:58:40;;;;;;;18.75;10.38;;;-1.30;99.90;;;;;;4977693;28;20421;-78
2022/12/14 02:01:05;;;;;;;16.33;10.50;;;-1.30;99.90;;;;;;4979014;28;20212;-79
2022/12/14 02:03:39;;;;;;;19.80;11.13;;;-1.30;99.90;;;;;;4948049;28;20540;-79
2022/12/14 02:06:20;;;;;;;15.25;10.68;;;-1.30;99.90;;;;;;4964597;28;20188;-78
2022/12/14 02:08:49;;;;;;;16.23;10.88;;;-1.40;99.90;;;;;;4996799;28;20237;-78
2022/12/14 02:11:23;;;;;;;23.42;12.85;;;-1.40;99.90;;;;;;4963000;28;20214;-78
2022/12/14 02:13:48;;;;;;;18.85;11.55;;;-1.50;99.90;;;;;;4979127;28;20219;-78
2022/12/14 02:16:14;;;;;;;19.10;10.70;;;-1.50;99.90;;;;;;4977901;28;20190;-78
2022/12/14 02:18:40;;;;;;;19.07;11.80;;;-1.50;99.90;;;;;;4960055;28;20190;-78
2022/12/14 02:21:26;;;;;;;20.80;10.67;;;-1.50;99.90;;;;;;4991604;28;20525;-78
2022/12/14 02:23:52;;;;;;;26.65;11.23;;;-1.60;99.90;;;;;;4990705;28;20197;-77
2022/12/14 02:26:20;;;;;;;20.90;11.87;;;-1.60;99.90;;;;;;4972492;28;20687;-76
2022/12/14 02:29:22;;;;;;;20.05;11.50;;;-1.50;99.90;;;;;;4989993;28;20268;-81
2022/12/14 02:32:11;;;;;;;20.95;11.13;;;-1.50;99.90;;;;;;4975762;28;20209;-80
2022/12/14 02:34:52;;;;;;;19.50;11.95;;;-1.50;99.90;;;;;;4991382;28;20189;-80
2022/12/14 02:37:41;;;;;;;21.70;12.30;;;-1.50;99.90;;;;;;4974218;28;20179;-81
2022/12/14 02:40:33;;;;;;;18.48;11.57;;;-1.50;99.90;;;;;;4974330;28;20181;-80
2022/12/14 02:43:29;;;;;;;19.85;11.45;;;-1.50;99.90;;;;;;4992822;28;20255;-79
2022/12/14 02:46:15;;;;;;;17.92;11.02;;;-1.60;99.90;;;;;;4989851;28;20170;-76
2022/12/14 02:48:50;;;;;;;21.40;12.40;;;-1.60;99.90;;;;;;4971999;28;20189;-78
2022/12/14 02:52:01;;;;;;;19.33;11.98;;;-1.70;99.90;;;;;;4973071;28;20208;-77
2022/12/14 02:54:58;;;;;;;19.73;11.68;;;-1.70;99.90;;;;;;4928987;29;20183;-77
2022/12/14 02:58:00;;;;;;;19.88;11.35;;;-1.60;99.90;;;;;;4912686;29;20191;-76
2022/12/14 03:00:27;;;;;;;19.45;11.75;;;-1.60;99.90;;;;;;4987612;28;20375;-77
2022/12/14 03:02:54;;;;;;;21.63;12.88;;;-1.70;99.90;;;;;;4972218;28;20217;-82
2022/12/14 03:05:20;;;;;;;18.98;11.30;;;-1.60;99.90;;;;;;4956680;28;20186;-82
2022/12/14 03:07:49;;;;;;;19.73;12.30;;;-1.60;99.90;;;;;;4957906;28;20712;-82
2022/12/14 03:10:29;;;;;;;19.15;12.85;;;-1.50;99.90;;;;;;4973542;28;20210;-80
2022/12/14 03:13:29;;;;;;;23.00;12.73;;;-1.60;99.90;;;;;;4989920;28;20201;-77
2022/12/14 03:16:12;;;;;;;19.52;11.55;;;-1.50;99.90;;;;;;4950043;28;20325;-76
2022/12/14 03:18:44;;;;;;;19.75;11.60;;;-1.60;99.90;;;;;;4989747;28;20178;-76
2022/12/14 03:21:16;;;;;;;22.80;13.60;;;-1.60;99.90;;;;;;4989606;28;20657;-76
2022/12/14 03:23:47;;;;;;;21.17;12.45;;;-1.60;99.90;;;;;;4972042;28;20209;-77
2022/12/14 03:26:32;;;;;;;20.73;13.45;;;-1.60;99.90;;;;;;4972731;28;20174;-78
2022/12/14 03:29:14;;;;;;;21.85;13.05;;;-1.60;99.90;;;;;;4989491;28;20212;-76
2022/12/14 03:31:52;;;;;;;22.65;13.35;;;-1.50;99.90;;;;;;4989606;28;20205;-77
2022/12/14 03:34:24;;;;;;;24.40;13.73;;;-1.50;99.90;;;;;;4992824;28;20212;-77
2022/12/14 03:37:20;;;;;;;22.27;13.45;;;-1.40;99.90;;;;;;4976823;28;20194;-77
2022/12/14 03:39:46;;;;;;;22.08;14.18;;;-1.40;99.90;;;;;;4975720;28;20193;-76
2022/12/14 03:42:22;;;;;;;21.98;13.77;;;-1.40;99.90;;;;;;4975523;28;20201;-76
2022/12/14 03:44:58;;;;;;;23.48;13.18;;;-1.40;99.90;;;;;;4994482;28;20221;-81
2022/12/14 03:47:42;;;;;;;21.58;14.05;;;-1.40;99.90;;;;;;4976531;28;20287;-80
2022/12/14 03:50:22;;;;;;;24.55;13.23;;;-1.30;99.90;;;;;;4978061;28;20188;-79
2022/12/14 03:52:52;;;;;;;26.67;14.38;;;-1.30;99.90;;;;;;4976064;28;20300;-78
2022/12/14 03:55:56;;;;;;;24.30;14.30;;;-1.30;99.90;;;;;;4992752;28;20208;-77
2022/12/14 03:58:27;;;;;;;24.00;14.30;;;-1.20;99.90;;;;;;4992754;28;20177;-78
2022/12/14 04:01:01;;;;;;;24.35;13.40;;;-1.20;99.90;;;;;;4992436;28;20281;-76
2022/12/14 04:03:45;;;;;;;24.17;13.38;;;-1.10;99.90;;;;;;4992585;28;20193;-76
2022/12/14 04:06:28;;;;;;;23.85;13.68;;;-1.10;99.90;;;;;;4974945;28;20656;-76
2022/12/14 04:09:14;;;;;;;25.60;13.95;;;-1.10;99.90;;;;;;4974843;28;20174;-76
2022/12/14 04:20:27;;;;;;;23.25;14.48;;;-1.00;99.90;;;;;;4992642;28;20265;-75
2022/12/14 04:23:05;;;;;;;26.92;15.18;;;-0.90;99.90;;;;;;4992124;28;20700;-76
2022/12/14 04:30:05;;;;;;;20.92;13.32;;;-0.90;99.90;;;;;;4992282;28;20188;-76
2022/12/14 04:32:28;;;;;;;20.30;12.73;;;-0.90;99.90;;;;;;4919298;29;20634;-79
2022/12/14 04:35:11;;;;;;;24.85;13.45;;;-0.80;99.90;;;;;;4904753;29;20235;-75
2022/12/14 04:37:40;;;;;;;20.50;13.30;;;-0.60;99.90;;;;;;4990641;28;20194;-75
2022/12/14 04:40:19;;;;;;;23.50;14.35;;;-0.80;99.90;;;;;;4974230;28;20194;-75
2022/12/14 04:43:08;;;;;;;21.75;13.23;;;-0.80;99.90;;;;;;4958627;28;20762;-75
2022/12/14 04:45:51;;;;;;;21.50;14.15;;;-0.80;99.90;;;;;;4990693;28;20566;-76
2022/12/14 04:48:22;;;;;;;24.67;14.88;;;-0.90;99.90;;;;;;4991433;28;20166;-76
2022/12/14 04:50:55;;;;;;;24.35;14.07;;;-0.90;99.90;;;;;;4973677;28;20190;-76
2022/12/14 04:53:25;;;;;;;26.00;15.90;;;-0.90;99.90;;;;;;4991245;28;20174;-75
2022/12/14 04:56:05;;;;;;;22.50;14.38;;;-0.80;99.90;;;;;;4973420;28;20182;-76
2022/12/14 04:58:32;;;;;;;24.58;14.75;;;-0.90;99.90;;;;;;4991010;28;20178;-75
2022/12/14 05:01:10;;;;;;;27.27;16.17;;;-0.80;99.90;;;;;;4990916;28;20190;-75
2022/12/14 05:03:48;;;;;;;24.40;15.38;;;-0.80;99.90;;;;;;4973101;28;20244;-75
2022/12/14 05:06:23;;;;;;;21.92;14.07;;;-0.80;99.90;;;;;;4990778;28;20176;-74
2022/12/14 05:09:21;;;;;;;30.40;16.60;;;-0.80;99.90;;;;;;4989388;28;20200;-75
2022/12/14 05:12:02;;;;;;;27.52;15.30;;;-0.70;99.90;;;;;;4989384;28;20205;-75
2022/12/14 05:14:38;;;;;;;25.70;15.68;;;-0.80;99.90;;;;;;4971615;28;20207;-75
2022/12/14 05:17:05;;;;;;;22.83;13.93;;;-0.70;99.90;;;;;;4989313;28;20217;-75
2022/12/14 05:19:31;;;;;;;21.85;14.40;;;-0.70;99.90;;;;;;4989234;28;20189;-74
2022/12/14 05:22:03;;;;;;;24.93;16.60;;;-0.60;99.90;;;;;;4971564;28;20202;-75
2022/12/14 05:24:28;;;;;;;24.30;15.90;;;-0.60;99.90;;;;;;4971422;28;20759;-75
2022/12/14 05:26:54;;;;;;;31.37;14.37;;;-0.60;99.90;;;;;;4955306;28;20194;-77
2022/12/14 05:29:19;;;;;;;36.23;14.50;;;-0.60;99.90;;;;;;4989166;28;20720;-75
2022/12/14 05:31:45;;;;;;;19.87;12.30;;;-0.80;99.90;;;;;;4955513;28;20210;-77
2022/12/14 05:34:10;;;;;;;24.37;14.20;;;-0.80;99.90;;;;;;4989067;28;20963;-77
2022/12/14 05:36:36;;;;;;;21.67;13.53;;;-0.90;99.90;;;;;;4955039;28;20197;-75
2022/12/14 05:39:02;;;;;;;26.40;14.47;;;-1.00;99.90;;;;;;4988872;28;20225;-75
2022/12/14 05:41:27;;;;;;;25.30;13.20;;;-1.10;99.90;;;;;;4971083;28;20237;-75
2022/12/14 05:43:53;;;;;;;27.93;17.30;;;-1.10;99.90;;;;;;4954968;28;20209;-75
2022/12/14 05:46:19;;;;;;;24.00;14.33;;;-1.20;99.90;;;;;;4988906;28;20896;-75
2022/12/14 05:48:44;;;;;;;23.43;14.37;;;-1.10;99.90;;;;;;4988967;28;20512;-75
2022/12/14 05:51:12;;;;;;;24.10;15.03;;;-1.20;99.90;;;;;;4988731;28;20233;-75
2022/12/14 05:53:38;;;;;;;24.00;15.00;;;-1.20;99.90;;;;;;4971176;28;20186;-75
2022/12/14 05:56:05;;;;;;;27.35;14.05;;;-1.20;99.90;;;;;;4970801;28;20284;-75
2022/12/14 05:58:32;;;;;;;23.08;15.27;;;-1.10;99.90;;;;;;4988781;28;20186;-75
2022/12/14 06:01:02;;;;;;;25.77;16.15;;;-1.00;99.90;;;;;;4988405;28;20271;-75
2022/12/14 06:03:28;;;;;;;21.95;15.10;;;-1.00;99.90;;;;;;4988202;28;20201;-75
2022/12/14 06:05:59;;;;;;;27.13;15.47;;;-1.00;99.90;;;;;;4971067;28;20609;-77
2022/12/14 06:08:25;;;;;;;24.15;15.38;;;-1.10;99.90;;;;;;4988365;28;20212;-75
2022/12/14 06:10:50;;;;;;;19.77;12.07;;;-1.00;99.90;;;;;;4970802;28;20186;-75
2022/12/14 06:13:16;;;;;;;196.17;72.90;;;-1.00;99.90;;;;;;4988337;28;20220;-75
2022/12/14 06:15:41;;;;;;;37.47;22.77;;;-1.00;99.90;;;;;;4988721;28;20616;-75
2022/12/14 06:18:07;;;;;;;26.70;17.60;;;-1.10;99.90;;;;;;4988299;28;20182;-75
2022/12/14 06:20:33;;;;;;;22.83;14.77;;;-1.10;99.90;;;;;;4970911;28;20213;-75
2022/12/14 06:22:58;;;;;;;24.97;13.30;;;-1.10;99.90;;;;;;4970466;28;20227;-76
2022/12/14 06:25:24;;;;;;;297.60;91.73;;;-1.10;99.90;;;;;;4938520;28;20189;-75
2022/12/14 06:27:53;;;;;;;28.43;15.90;;;-1.20;99.90;;;;;;4954399;28;20190;-75
2022/12/14 06:30:19;;;;;;;29.02;15.07;;;-1.20;99.90;;;;;;4970750;28;20190;-74
2022/12/14 06:32:44;;;;;;;19.77;13.60;;;-1.10;99.90;;;;;;4970610;28;20226;-75
2022/12/14 06:35:10;;;;;;;22.67;14.30;;;-1.20;99.90;;;;;;4970413;28;20608;-76
2022/12/14 06:37:36;;;;;;;112.23;43.87;;;-1.20;99.90;;;;;;4970701;28;20194;-75
2022/12/14 06:40:01;;;;;;;177.97;64.50;;;-1.10;99.90;;;;;;4970650;28;20234;-75
2022/12/14 06:42:27;;;;;;;38.03;20.23;;;-1.00;99.90;;;;;;4970731;28;20209;-75
2022/12/14 06:44:52;;;;;;;30.40;16.33;;;-1.00;99.90;;;;;;4988205;28;20268;-75
2022/12/14 06:47:18;;;;;;;26.93;15.60;;;-1.00;99.90;;;;;;4970553;28;20178;-77
2022/12/14 06:49:44;;;;;;;20.30;12.90;;;-1.10;99.90;;;;;;4988137;28;20189;-75
2022/12/14 06:52:09;;;;;;;25.37;15.80;;;-1.10;99.90;;;;;;4970855;28;20597;-75
2022/12/14 06:54:35;;;;;;;39.60;21.47;;;-1.10;99.90;;;;;;4988294;28;20232;-75
2022/12/14 06:57:00;;;;;;;83.07;29.50;;;-1.00;99.90;;;;;;4988236;28;20189;-75
2022/12/14 06:59:26;;;;;;;57.63;24.80;;;-1.10;99.90;;;;;;4970666;28;20190;-75
2022/12/14 07:01:52;;;;;;;131.93;44.70;;;-1.00;99.90;;;;;;4988477;28;20222;-75
2022/12/14 07:04:19;;;;;;;89.27;31.83;;;-0.90;99.90;;;;;;4988103;28;20314;-75
2022/12/14 07:06:45;;;;;;;27.10;15.98;;;-1.00;99.90;;;;;;4971112;28;20601;-74
2022/12/14 07:09:12;;;;;;;120.73;35.23;;;-1.10;99.90;;;;;;4973971;28;20236;-74
2022/12/14 07:11:38;;;;;;;126.95;41.55;;;-1.10;99.90;;;;;;4974385;28;20445;-76
2022/12/14 07:14:05;;;;;;;23.40;14.23;;;-1.00;99.90;;;;;;4974484;28;20268;-74
2022/12/14 07:16:33;;;;;;;24.33;16.05;;;-1.00;99.90;;;;;;4991702;28;20201;-74
2022/12/14 07:18:59;;;;;;;23.67;15.05;;;-1.00;99.90;;;;;;4974252;28;20304;-74
2022/12/14 07:21:25;;;;;;;30.60;17.23;;;-1.00;99.90;;;;;;4974281;28;20233;-74
2022/12/14 07:23:52;;;;;;;37.97;21.67;;;-1.00;99.90;;;;;;4991805;28;20245;-74
2022/12/14 07:26:20;;;;;;;96.80;44.40;;;-1.00;99.90;;;;;;4992013;28;20467;-74
2022/12/14 07:28:47;;;;;;;56.33;28.48;;;-1.00;99.90;;;;;;4974327;28;20704;-74
2022/12/14 07:31:15;;;;;;;33.97;16.77;;;-1.00;99.90;;;;;;4975142;28;20237;-74
2022/12/14 07:33:41;;;;;;;62.53;37.78;;;-1.00;99.90;;;;;;4976914;28;20212;-76
2022/12/14 07:36:12;;;;;;;33.33;19.90;;;-1.00;99.90;;;;;;4976961;28;20190;-76
2022/12/14 07:38:39;;;;;;;33.85;17.10;;;-1.00;99.90;;;;;;4977207;28;20189;-76
2022/12/14 07:41:08;;;;;;;26.17;16.05;;;-1.10;99.90;;;;;;4994752;28;20268;-76
2022/12/14 07:43:34;;;;;;;25.25;15.98;;;-1.10;99.90;;;;;;4993763;28;20206;-77
2022/12/14 07:46:02;;;;;;;31.20;18.30;;;-1.00;99.90;;;;;;4976657;28;20281;-76
2022/12/14 07:48:28;;;;;;;29.20;17.13;;;-1.00;99.90;;;;;;4994192;28;20428;-76
2022/12/14 07:50:54;;;;;;;36.83;18.23;;;-1.00;99.90;;;;;;4993568;28;20208;-76
2022/12/14 07:53:19;;;;;;;31.67;17.93;;;-0.90;99.90;;;;;;4975959;28;20656;-77
2022/12/14 07:55:45;;;;;;;30.23;16.80;;;-0.90;99.90;;;;;;4992941;28;20476;-76
2022/12/14 07:58:11;;;;;;;34.83;16.77;;;-0.90;99.90;;;;;;4974970;28;20692;-75
2022/12/14 08:00:36;;;;;;;25.77;16.00;;;-0.90;99.90;;;;;;4958227;28;20224;-76
2022/12/14 08:03:02;;;;;;;29.47;17.97;;;-0.90;99.90;;;;;;4973576;28;20213;-76
2022/12/14 08:05:27;;;;;;;35.87;18.90;;;-0.90;99.90;;;;;;4974297;28;20182;-76
2022/12/14 08:07:53;;;;;;;95.50;36.33;;;-0.90;99.90;;;;;;4974356;28;20585;-76
2022/12/14 08:10:19;;;;;;;30.57;18.67;;;-0.90;99.90;;;;;;4974522;28;20185;-76
2022/12/14 08:12:44;;;;;;;37.13;17.50;;;-0.80;99.90;;;;;;4974636;28;20200;-76
2022/12/14 08:15:10;;;;;;;38.30;22.17;;;-0.80;99.90;;;;;;4974468;28;20276;-76
2022/12/14 08:17:35;;;;;;;32.00;18.20;;;-0.80;99.90;;;;;;4991842;28;20190;-76
2022/12/14 08:20:01;;;;;;;42.83;19.97;;;-0.80;99.90;;;;;;4991317;28;20252;-76
2022/12/14 08:22:27;;;;;;;49.13;22.80;;;-0.80;99.90;;;;;;4991753;28;20233;-76
2022/12/14 08:24:52;;;;;;;31.47;17.13;;;-0.80;99.90;;;;;;4991215;28;20206;-76
2022/12/14 08:27:18;;;;;;;32.43;18.10;;;-0.70;99.90;;;;;;4974202;28;20207;-76
2022/12/14 08:29:43;;;;;;;28.80;16.77;;;-0.70;99.90;;;;;;4991638;28;20190;-77
2022/12/14 08:32:09;;;;;;;31.03;17.50;;;-0.70;99.90;;;;;;4973660;28;20305;-77
2022/12/14 08:34:34;;;;;;;27.93;17.70;;;-0.70;99.90;;;;;;4957674;28;20548;-77
2022/12/14 08:37:00;;;;;;;30.70;18.20;;;-0.70;99.90;;;;;;4957728;28;20559;-77
2022/12/14 08:39:26;;;;;;;35.67;19.80;;;-0.80;99.90;;;;;;4991785;28;20190;-77
2022/12/14 08:41:51;;;;;;;30.87;18.27;;;-0.70;99.90;;;;;;4974321;28;20255;-78
2022/12/14 08:44:17;;;;;;;26.80;16.80;;;-0.70;99.90;;;;;;4974373;28;20194;-77
2022/12/14 08:46:43;;;;;;;31.23;17.93;;;-0.80;99.90;;;;;;4991942;28;20181;-77
2022/12/14 08:49:10;;;;;;;46.50;25.43;;;-0.80;99.90;;;;;;4974634;28;20441;-77
2022/12/14 08:51:38;;;;;;;32.92;19.63;;;-0.70;99.90;;;;;;4991951;28;20665;-77
2022/12/14 08:54:04;;;;;;;43.47;23.33;;;-0.70;99.90;;;;;;4974907;28;20886;-77
2022/12/14 08:56:30;;;;;;;37.20;21.53;;;-0.70;99.90;;;;;;4974691;28;20187;-78
2022/12/14 08:58:56;;;;;;;37.20;22.90;;;-0.70;99.90;;;;;;4958757;28;20212;-78
2022/12/14 09:01:24;;;;;;;101.95;43.50;;;-0.70;99.90;;;;;;4974530;28;20324;-76
2022/12/14 09:03:50;;;;;;;48.83;26.48;;;-0.70;99.90;;;;;;4958834;28;20213;-77
2022/12/14 09:06:19;;;;;;;71.43;33.50;;;-0.60;99.90;;;;;;4992411;28;20566;-77
2022/12/14 09:08:45;;;;;;;48.15;22.80;;;-0.70;99.90;;;;;;4973550;28;20178;-77
2022/12/14 09:11:13;;;;;;;28.08;18.27;;;-0.60;99.90;;;;;;4973409;28;20220;-78
2022/12/14 09:13:39;;;;;;;40.05;21.75;;;-0.60;99.90;;;;;;4991177;28;20607;-77
2022/12/14 09:16:10;;;;;;;29.42;19.08;;;-0.60;99.90;;;;;;4990790;28;20222;-78
2022/12/14 09:18:36;;;;;;;43.17;21.63;;;-0.60;99.90;;;;;;4973138;28;20194;-77
2022/12/14 09:21:02;;;;;;;42.23;23.70;;;-0.60;99.90;;;;;;4973926;28;20239;-77
2022/12/14 09:23:29;;;;;;;43.25;25.75;;;-0.60;99.90;;;;;;4990359;28;20197;-78
2022/12/14 09:26:03;;;;;;;38.25;21.20;;;-0.60;99.90;;;;;;4990536;28;20174;-77
2022/12/14 09:28:30;;;;;;;33.97;18.88;;;-0.60;99.90;;;;;;4990814;28;20256;-77
2022/12/14 09:30:58;;;;;;;36.20;21.80;;;-0.50;99.90;;;;;;4972219;28;20194;-77
2022/12/14 09:33:25;;;;;;;38.83;20.88;;;-0.60;99.90;;;;;;4972983;28;20213;-77
2022/12/14 09:35:51;;;;;;;34.38;19.92;;;-0.60;99.90;;;;;;4991199;28;20182;-77
2022/12/14 09:38:16;;;;;;;45.50;21.73;;;-0.60;99.90;;;;;;4972985;28;20182;-77
2022/12/14 09:40:54;;;;;;;37.13;21.50;;;-0.60;99.90;;;;;;4956815;28;20999;-78
2022/12/14 09:43:33;;;;;;;41.22;22.90;;;-0.50;99.90;;;;;;4972629;28;20256;-77
2022/12/14 09:46:15;;;;;;;41.67;21.42;;;-0.50;99.90;;;;;;4990207;28;20652;-77
2022/12/14 09:48:42;;;;;;;39.83;22.48;;;-0.50;99.90;;;;;;4990071;28;20256;-77
2022/12/14 09:51:15;;;;;;;41.50;22.15;;;-0.40;99.90;;;;;;4972170;28;20201;-77
2022/12/14 09:53:43;;;;;;;34.85;21.65;;;-0.40;99.90;;;;;;4972785;28;20261;-77
2022/12/14 09:56:16;;;;;;;39.65;22.08;;;-0.50;99.90;;;;;;4989869;28;20214;-77
2022/12/14 09:58:52;;;;;;;39.03;22.92;;;-0.50;99.90;;;;;;4989712;28;20252;-77
2022/12/14 10:01:21;;;;;;;40.47;22.80;;;-0.50;99.90;;;;;;4989698;28;20312;-77
2022/12/14 10:04:08;;;;;;;41.00;22.77;;;-0.50;99.90;;;;;;4972423;28;20213;-77
2022/12/14 10:07:09;;;;;;;41.67;22.48;;;-0.40;99.90;;;;;;4989265;28;20178;-77
2022/12/14 10:09:40;;;;;;;43.08;24.42;;;-0.40;99.90;;;;;;4978463;28;20198;-76
2022/12/14 10:12:38;;;;;;;42.75;21.73;;;-0.40;99.90;;;;;;4988792;28;20202;-77
2022/12/14 10:15:04;;;;;;;46.03;22.58;;;-0.40;99.90;;;;;;4971441;28;20193;-77
2022/12/14 10:17:48;;;;;;;46.60;24.33;;;-0.40;99.90;;;;;;4989094;28;20233;-76
2022/12/14 10:20:27;;;;;;;39.67;22.42;;;-0.40;99.90;;;;;;4988857;28;20657;-76
2022/12/14 10:22:53;;;;;;;44.28;23.20;;;-0.30;99.90;;;;;;4971308;28;20716;-76
2022/12/14 10:25:26;;;;;;;43.30;24.15;;;-0.30;99.90;;;;;;4971312;28;20694;-76
2022/12/14 10:28:07;;;;;;;38.25;24.05;;;-0.30;99.90;;;;;;4971577;28;20186;-76
2022/12/14 10:30:34;;;;;;;44.35;23.70;;;-0.30;99.90;;;;;;4989308;28;20649;-77
2022/12/14 10:33:18;;;;;;;41.38;24.02;;;-0.20;99.90;;;;;;4988938;28;20700;-77
2022/12/14 10:35:53;;;;;;;35.85;22.42;;;-0.20;99.90;;;;;;4989203;28;20360;-76
2022/12/14 10:38:30;;;;;;;41.88;22.60;;;-0.20;99.90;;;;;;4989252;28;20264;-77
2022/12/14 10:41:19;;;;;;;39.65;23.02;;;-0.20;99.90;;;;;;4971463;28;20269;-76
2022/12/14 10:44:21;;;;;;;38.97;23.40;;;-0.20;99.90;;;;;;4975510;28;20209;-76
2022/12/14 10:47:01;;;;;;;36.75;22.33;;;-0.10;99.90;;;;;;4992538;28;20181;-77
2022/12/14 10:49:56;;;;;;;31.20;19.98;;;0.00;99.90;;;;;;4992545;28;20542;-76
2022/12/14 10:52:27;;;;;;;34.13;20.02;;;0.00;99.90;;;;;;4992702;28;20202;-77
2022/12/14 10:55:00;;;;;;;36.70;20.67;;;-0.10;99.90;;;;;;4992635;28;20261;-76
2022/12/14 10:57:27;;;;;;;33.20;19.38;;;0.00;99.90;;;;;;4974917;28;20659;-76
2022/12/14 10:59:54;;;;;;;26.85;18.48;;;-0.20;99.90;;;;;;4993191;28;20182;-77
2022/12/14 11:02:34;;;;;;;30.08;18.60;;;-0.20;99.90;;;;;;4959189;28;20220;-76
2022/12/14 11:05:20;;;;;;;39.42;20.75;;;-0.10;99.90;;;;;;4993297;28;20220;-76
2022/12/14 11:07:48;;;;;;;31.33;19.20;;;-0.10;99.90;;;;;;4975374;28;20186;-76
2022/12/14 11:10:23;;;;;;;34.10;19.60;;;-0.10;99.90;;;;;;4992693;28;20284;-76
2022/12/14 11:13:00;;;;;;;31.50;19.73;;;-0.10;99.90;;;;;;4958955;28;20358;-76
2022/12/14 11:15:44;;;;;;;30.33;18.30;;;0.00;99.90;;;;;;4992863;28;20195;-76
2022/12/14 11:18:16;;;;;;;29.35;19.05;;;0.10;99.90;;;;;;4993438;28;20193;-77
2022/12/14 11:20:53;;;;;;;29.65;18.80;;;0.20;99.90;;;;;;4975282;28;20177;-76
2022/12/14 11:23:26;;;;;;;31.45;19.48;;;0.20;99.90;;;;;;4974765;28;20700;-77
2022/12/14 11:26:00;;;;;;;33.83;18.70;;;0.20;99.90;;;;;;4974872;28;20190;-76
2022/12/14 11:28:54;;;;;;;32.33;19.42;;;0.20;99.90;;;;;;4991903;28;20186;-77
2022/12/14 11:31:20;;;;;;;34.83;19.08;;;0.20;99.90;;;;;;4971628;28;20264;-76
2022/12/14 11:33:50;;;;;;;29.73;18.50;;;0.20;99.90;;;;;;4992077;28;20204;-76
2022/12/14 11:36:26;;;;;;;28.58;19.20;;;0.30;99.90;;;;;;4974412;28;20187;-76
2022/12/14 11:39:11;;;;;;;35.97;19.63;;;0.30;99.90;;;;;;4974989;28;20180;-77
2022/12/14 11:41:43;;;;;;;36.05;21.58;;;0.30;99.90;;;;;;4991871;28;20225;-77
2022/12/14 11:44:14;;;;;;;37.90;21.90;;;0.40;99.90;;;;;;4991902;28;20211;-76
2022/12/14 11:47:00;;;;;;;36.72;23.85;;;0.40;99.90;;;;;;4991907;28;20834;-76
2022/12/14 11:49:42;;;;;;;41.83;24.38;;;0.40;99.90;;;;;;4992090;28;20182;-76
2022/12/14 11:52:11;;;;;;;43.42;26.05;;;0.40;99.90;;;;;;4991794;28;20199;-76
2022/12/14 11:54:43;;;;;;;49.55;25.40;;;0.40;99.90;;;;;;4990710;28;20189;-77
2022/12/14 11:57:11;;;;;;;38.05;23.60;;;0.40;99.90;;;;;;4958043;28;20186;-76
2022/12/14 12:00:01;;;;;;;42.95;22.92;;;0.30;99.90;;;;;;4992761;28;20234;-77
2022/12/14 12:02:38;;;;;;;44.58;26.95;;;0.30;99.90;;;;;;4974353;28;20745;-76
2022/12/14 12:05:19;;;;;;;39.28;23.52;;;0.30;99.90;;;;;;4991753;28;20312;-76
2022/12/14 12:07:55;;;;;;;34.55;21.75;;;0.30;99.90;;;;;;4991851;28;20967;-76
2022/12/14 12:10:22;;;;;;;32.72;19.48;;;0.30;99.90;;;;;;4974174;28;20192;-77
2022/12/14 12:12:52;;;;;;;38.25;23.63;;;0.30;99.90;;;;;;4991438;28;20699;-77
2022/12/14 12:15:25;;;;;;;34.60;21.77;;;0.20;99.90;;;;;;4991134;28;20203;-76
2022/12/14 12:18:09;;;;;;;38.75;24.10;;;0.30;99.90;;;;;;4991411;28;20648;-76
2022/12/14 12:20:41;;;;;;;35.25;21.55;;;0.30;99.90;;;;;;4973653;28;20221;-77
2022/12/14 12:23:20;;;;;;;36.85;22.73;;;0.40;99.90;;;;;;4991241;28;20213;-77
2022/12/14 12:25:50;;;;;;;45.03;23.70;;;0.50;99.90;;;;;;4991227;28;20181;-77
2022/12/14 12:28:27;;;;;;;44.13;26.23;;;0.50;99.90;;;;;;4990872;28;20237;-76
2022/12/14 12:30:59;;;;;;;48.28;25.60;;;0.60;99.90;;;;;;4990966;28;20647;-77
2022/12/14 12:33:40;;;;;;;43.58;23.10;;;0.60;99.90;;;;;;4991582;28;20237;-76
2022/12/14 12:36:07;;;;;;;34.72;21.58;;;0.70;99.90;;;;;;4973339;28;20187;-76
2022/12/14 12:38:53;;;;;;;34.00;20.77;;;0.80;99.90;;;;;;4991143;28;20190;-77
2022/12/14 12:41:40;;;;;;;33.08;20.35;;;0.80;99.90;;;;;;4973258;28;20697;-76
2022/12/14 12:44:23;;;;;;;37.80;21.50;;;0.70;99.90;;;;;;4973674;28;20360;-77
2022/12/14 12:47:03;;;;;;;35.30;21.02;;;0.70;99.90;;;;;;4991271;28;20168;-77
2022/12/14 12:49:29;;;;;;;39.85;22.98;;;0.90;99.90;;;;;;4991226;28;20687;-76
2022/12/14 12:52:02;;;;;;;38.23;24.60;;;1.00;99.90;;;;;;4991351;28;20233;-77
2022/12/14 12:54:38;;;;;;;40.03;25.08;;;1.10;99.90;;;;;;4973605;28;20225;-77
2022/12/14 12:57:07;;;;;;;39.13;24.88;;;1.10;99.90;;;;;;4991051;28;20176;-77
2022/12/14 12:59:49;;;;;;;40.50;24.60;;;1.20;99.90;;;;;;4990713;28;20657;-76
2022/12/14 13:02:29;;;;;;;44.05;24.88;;;1.20;99.90;;;;;;4990546;28;20206;-76
2022/12/14 13:04:57;;;;;;;47.38;26.77;;;1.20;99.90;;;;;;4973917;28;20205;-76